Time;durP1;ratioP1;P1;durP2;ratioP2;P2;SDS_P1;SDS_P2;PMS_P1;PMS_P2;Temp;Humidity;BMP_temperature;BMP_pressure;BME280_temperature;BME280_humidity;BME280_pressure;Samples;Min_cycle;Max_cycle;Signal;HPM_P1;HPM_P2
2023/06/12 00:01:40;;;;;;;5.45;4.95;;;;;;;;;;5008256;28;20250;-48
2023/06/12 00:04:06;;;;;;;6.55;5.25;;;;;;;;;;5012312;28;20188;-48
2023/06/12 00:06:32;;;;;;;5.78;5.05;;;;;;;;;;5004958;28;20227;-49
2023/06/12 00:08:58;;;;;;;5.65;4.53;;;;;;;;;;5009970;28;20177;-48
2023/06/12 00:11:25;;;;;;;6.00;5.03;;;;;;;;;;5012902;28;20247;-49
2023/06/12 00:13:51;;;;;;;7.45;5.20;;;;;;;;;;5013439;28;20190;-48
2023/06/12 00:16:17;;;;;;;6.60;5.43;;;;;;;;;;5013263;28;20516;-48
2023/06/12 00:18:43;;;;;;;5.65;4.88;;;;;;;;;;5013920;28;20184;-49
2023/06/12 00:21:10;;;;;;;5.70;5.15;;;;;;;;;;5013222;28;20207;-49
2023/06/12 00:23:36;;;;;;;6.47;5.13;;;;;;;;;;5012104;28;20192;-48
2023/06/12 00:26:03;;;;;;;6.10;5.18;;;;;;;;;;5011305;28;20204;-48
2023/06/12 00:28:29;;;;;;;6.45;5.40;;;;;;;;;;5012597;28;20626;-48
2023/06/12 00:30:55;;;;;;;8.30;5.15;;;;;;;;;;5013300;28;20192;-48
2023/06/12 00:33:21;;;;;;;5.15;4.65;;;;;;;;;;5013409;28;20184;-48
2023/06/12 00:35:47;;;;;;;5.40;4.85;;;;;;;;;;5013343;28;20536;-49
2023/06/12 00:38:14;;;;;;;5.30;4.80;;;;;;;;;;5011270;28;20259;-48
2023/06/12 00:40:40;;;;;;;5.53;4.80;;;;;;;;;;5014530;28;20189;-49
2023/06/12 00:43:06;;;;;;;6.55;5.50;;;;;;;;;;5013188;28;20318;-48
2023/06/12 00:45:32;;;;;;;5.22;4.72;;;;;;;;;;5013228;28;20218;-48
2023/06/12 00:47:58;;;;;;;4.97;4.50;;;;;;;;;;5007231;28;20180;-48
2023/06/12 00:50:28;;;;;;;6.25;5.18;;;;;;;;;;5013063;28;20505;-48
2023/06/12 00:52:55;;;;;;;5.80;5.10;;;;;;;;;;5012225;28;20492;-48
2023/06/12 00:55:21;;;;;;;6.05;4.78;;;;;;;;;;5013100;28;20242;-48
2023/06/12 00:57:48;;;;;;;6.20;5.60;;;;;;;;;;5012266;28;20238;-48
2023/06/12 01:00:17;;;;;;;5.95;5.35;;;;;;;;;;5007019;28;20254;-48
2023/06/12 01:02:44;;;;;;;6.00;5.20;;;;;;;;;;5006298;28;20267;-48
2023/06/12 01:05:12;;;;;;;5.55;4.82;;;;;;;;;;5011732;28;20197;-49
2023/06/12 01:07:45;;;;;;;6.10;5.38;;;;;;;;;;5005685;28;20227;-48
2023/06/12 01:10:14;;;;;;;5.75;5.15;;;;;;;;;;5012559;28;20191;-48
2023/06/12 01:12:41;;;;;;;8.73;5.18;;;;;;;;;;5010852;28;20191;-49
2023/06/12 01:15:07;;;;;;;6.30;5.68;;;;;;;;;;5013089;28;20184;-48
2023/06/12 01:17:35;;;;;;;6.57;5.45;;;;;;;;;;5016869;28;20252;-48
2023/06/12 01:20:03;;;;;;;5.93;5.10;;;;;;;;;;5015986;28;20181;-48
2023/06/12 01:22:29;;;;;;;4.63;4.22;;;;;;;;;;5015588;28;20238;-48
2023/06/12 01:25:01;;;;;;;5.75;5.13;;;;;;;;;;5014493;28;20215;-48
2023/06/12 01:27:39;;;;;;;6.82;4.90;;;;;;;;;;5018361;28;20187;-48
2023/06/12 01:30:08;;;;;;;6.00;5.30;;;;;;;;;;5012177;28;20582;-48
2023/06/12 01:32:37;;;;;;;6.32;5.30;;;;;;;;;;5008448;28;20180;-48
2023/06/12 01:35:11;;;;;;;5.47;4.97;;;;;;;;;;5015726;28;20185;-48
2023/06/12 01:37:37;;;;;;;6.13;5.20;;;;;;;;;;5015478;28;20187;-48
2023/06/12 01:40:08;;;;;;;6.60;5.05;;;;;;;;;;5016114;28;20184;-48
2023/06/12 01:42:34;;;;;;;5.40;4.90;;;;;;;;;;5016001;28;20180;-48
2023/06/12 01:45:00;;;;;;;5.10;4.60;;;;;;;;;;5010732;28;20209;-49
2023/06/12 01:47:26;;;;;;;5.78;5.13;;;;;;;;;;5009347;28;20559;-48
2023/06/12 01:49:52;;;;;;;5.88;5.10;;;;;;;;;;5015425;28;20444;-48
2023/06/12 01:52:18;;;;;;;6.30;5.40;;;;;;;;;;5005680;28;20491;-49
2023/06/12 01:54:50;;;;;;;6.13;5.18;;;;;;;;;;5015810;28;20250;-48
2023/06/12 01:57:19;;;;;;;6.13;5.53;;;;;;;;;;5015438;28;20227;-48
2023/06/12 01:59:45;;;;;;;6.32;5.28;;;;;;;;;;5008925;28;20185;-48
2023/06/12 02:02:11;;;;;;;7.72;5.00;;;;;;;;;;5012562;28;20184;-48
2023/06/12 02:04:37;;;;;;;8.50;5.07;;;;;;;;;;5010891;28;20203;-49
2023/06/12 02:07:03;;;;;;;7.38;5.85;;;;;;;;;;5017024;28;20185;-49
2023/06/12 02:09:29;;;;;;;5.32;4.82;;;;;;;;;;5016228;28;20226;-49
2023/06/12 02:11:55;;;;;;;6.63;4.95;;;;;;;;;;5009781;28;20179;-49
2023/06/12 02:14:23;;;;;;;5.35;4.85;;;;;;;;;;5013892;28;20252;-48
2023/06/12 02:16:49;;;;;;;6.28;5.10;;;;;;;;;;5015861;28;20353;-48
2023/06/12 02:19:15;;;;;;;5.20;4.70;;;;;;;;;;5007931;28;20196;-48
2023/06/12 02:21:41;;;;;;;6.15;4.97;;;;;;;;;;5014696;28;20204;-47
2023/06/12 02:24:07;;;;;;;5.70;5.10;;;;;;;;;;5012213;28;20192;-50
2023/06/12 02:26:33;;;;;;;5.90;5.30;;;;;;;;;;5011299;28;20212;-49
2023/06/12 02:29:09;;;;;;;7.25;5.25;;;;;;;;;;5014495;28;20298;-49
2023/06/12 02:31:35;;;;;;;5.78;5.20;;;;;;;;;;5013458;28;20548;-49
2023/06/12 02:34:01;;;;;;;5.43;4.80;;;;;;;;;;5008632;28;20185;-49
2023/06/12 02:36:28;;;;;;;6.13;5.50;;;;;;;;;;5011170;28;20188;-49
2023/06/12 02:38:54;;;;;;;6.28;5.28;;;;;;;;;;5008357;28;20192;-49
2023/06/12 02:41:20;;;;;;;5.43;4.93;;;;;;;;;;5012284;28;20180;-49
2023/06/12 02:43:46;;;;;;;5.45;4.88;;;;;;;;;;5014005;28;20180;-49
2023/06/12 02:46:12;;;;;;;5.50;5.00;;;;;;;;;;5008030;28;20703;-49
2023/06/12 02:48:38;;;;;;;5.55;4.88;;;;;;;;;;5029753;28;20192;-49
2023/06/12 02:51:04;;;;;;;6.00;5.40;;;;;;;;;;5013982;28;20218;-49
2023/06/12 02:53:31;;;;;;;5.60;4.95;;;;;;;;;;5014533;28;20222;-49
2023/06/12 02:55:57;;;;;;;5.22;4.72;;;;;;;;;;5010659;28;20241;-49
2023/06/12 02:58:23;;;;;;;6.78;5.22;;;;;;;;;;5010431;28;20204;-49
2023/06/12 03:00:49;;;;;;;4.97;4.55;;;;;;;;;;5011129;28;20215;-49
2023/06/12 03:03:15;;;;;;;6.38;5.15;;;;;;;;;;5014040;28;21031;-49
2023/06/12 03:05:43;;;;;;;7.82;6.00;;;;;;;;;;5009878;28;20199;-49
2023/06/12 03:08:09;;;;;;;6.03;5.40;;;;;;;;;;5010502;28;20177;-49
2023/06/12 03:10:35;;;;;;;6.65;5.20;;;;;;;;;;5007362;28;20277;-49
2023/06/12 03:13:01;;;;;;;5.25;4.75;;;;;;;;;;5012410;28;20714;-49
2023/06/12 03:15:27;;;;;;;5.45;4.85;;;;;;;;;;5013327;28;20211;-49
2023/06/12 03:17:53;;;;;;;5.65;4.93;;;;;;;;;;5015162;28;20808;-49
2023/06/12 03:20:19;;;;;;;6.65;5.30;;;;;;;;;;5011063;28;20201;-49
2023/06/12 03:22:45;;;;;;;5.78;5.18;;;;;;;;;;5013751;28;20192;-50
2023/06/12 03:25:11;;;;;;;5.68;4.88;;;;;;;;;;5013746;28;20209;-49
2023/06/12 03:27:38;;;;;;;6.32;5.07;;;;;;;;;;5015174;28;20227;-49
2023/06/12 03:30:04;;;;;;;7.22;5.10;;;;;;;;;;5012721;28;20516;-49
2023/06/12 03:32:30;;;;;;;6.45;4.70;;;;;;;;;;5027483;28;20192;-49
2023/06/12 03:34:56;;;;;;;5.30;4.80;;;;;;;;;;5013156;28;20454;-49
2023/06/12 03:37:23;;;;;;;5.28;4.60;;;;;;;;;;5014125;28;20474;-49
2023/06/12 03:39:49;;;;;;;5.20;4.70;;;;;;;;;;5013640;28;20180;-49
2023/06/12 03:42:15;;;;;;;6.28;5.38;;;;;;;;;;5009957;28;20296;-49
2023/06/12 03:44:41;;;;;;;6.47;5.13;;;;;;;;;;5009371;28;20184;-49
2023/06/12 03:47:07;;;;;;;5.97;5.28;;;;;;;;;;5012302;28;20179;-49
2023/06/12 03:49:33;;;;;;;6.80;5.05;;;;;;;;;;5014301;28;20181;-49
2023/06/12 03:51:59;;;;;;;5.50;4.00;;;;;;;;;;5009949;28;20241;-49
2023/06/12 03:54:25;;;;;;;8.00;4.70;;;;;;;;;;5010757;28;20183;-49
2023/06/12 03:56:51;;;;;;;8.68;4.88;;;;;;;;;;5013338;28;20184;-49
2023/06/12 03:59:18;;;;;;;10.65;5.70;;;;;;;;;;5013334;28;20230;-49
2023/06/12 04:01:44;;;;;;;7.97;5.65;;;;;;;;;;5013347;28;20192;-49
2023/06/12 04:04:11;;;;;;;8.85;5.13;;;;;;;;;;5013364;28;20192;-49
2023/06/12 04:06:40;;;;;;;8.88;5.28;;;;;;;;;;5011808;28;20203;-49
2023/06/12 04:09:07;;;;;;;11.43;5.95;;;;;;;;;;5012646;28;20491;-48
2023/06/12 04:11:34;;;;;;;8.80;5.18;;;;;;;;;;5006131;28;20188;-48
2023/06/12 04:14:00;;;;;;;9.32;4.93;;;;;;;;;;5013522;28;20244;-48
2023/06/12 04:16:27;;;;;;;7.45;5.45;;;;;;;;;;5011630;28;20457;-48
2023/06/12 04:18:53;;;;;;;7.97;5.32;;;;;;;;;;5013565;28;20558;-49
2023/06/12 04:21:21;;;;;;;7.97;5.38;;;;;;;;;;5008517;28;20433;-49
2023/06/12 04:23:47;;;;;;;10.00;5.20;;;;;;;;;;5009889;28;20297;-49
2023/06/12 04:26:14;;;;;;;8.38;5.25;;;;;;;;;;5009333;28;20516;-48
2023/06/12 04:28:41;;;;;;;6.03;4.80;;;;;;;;;;5007397;28;20220;-48
2023/06/12 04:31:07;;;;;;;8.00;5.40;;;;;;;;;;5013454;28;20191;-48
2023/06/12 04:33:35;;;;;;;9.05;5.40;;;;;;;;;;5009727;28;20181;-48
2023/06/12 04:36:02;;;;;;;8.57;4.80;;;;;;;;;;5012051;28;20181;-49
2023/06/12 04:38:30;;;;;;;8.90;5.43;;;;;;;;;;5013337;28;20190;-49
2023/06/12 04:40:56;;;;;;;7.28;5.13;;;;;;;;;;5013080;28;20188;-49
2023/06/12 04:43:23;;;;;;;8.43;5.70;;;;;;;;;;5007051;28;20545;-49
2023/06/12 04:45:49;;;;;;;9.13;5.60;;;;;;;;;;5008417;28;20600;-49
2023/06/12 04:48:15;;;;;;;6.53;5.22;;;;;;;;;;5010084;28;20220;-49
2023/06/12 04:50:41;;;;;;;7.88;5.65;;;;;;;;;;5009939;28;20263;-49
2023/06/12 04:53:07;;;;;;;5.78;5.13;;;;;;;;;;5023581;28;20251;-49
2023/06/12 04:55:33;;;;;;;6.30;5.07;;;;;;;;;;5016872;28;20584;-49
2023/06/12 04:57:59;;;;;;;7.13;5.47;;;;;;;;;;5013853;28;20250;-49
2023/06/12 05:00:25;;;;;;;7.47;4.82;;;;;;;;;;5013829;28;20217;-49
2023/06/12 05:02:55;;;;;;;5.90;4.82;;;;;;;;;;5015870;28;20260;-49
2023/06/12 05:05:21;;;;;;;10.15;5.45;;;;;;;;;;5018744;28;20463;-49
2023/06/12 05:07:48;;;;;;;6.70;5.63;;;;;;;;;;5013630;28;20205;-49
2023/06/12 05:10:15;;;;;;;6.32;4.60;;;;;;;;;;5015102;28;20842;-49
2023/06/12 05:12:41;;;;;;;7.80;4.88;;;;;;;;;;5015237;28;20188;-49
2023/06/12 05:15:07;;;;;;;5.95;5.25;;;;;;;;;;5016586;28;20191;-49
2023/06/12 05:17:33;;;;;;;6.70;4.70;;;;;;;;;;5026972;28;20287;-49
2023/06/12 05:19:59;;;;;;;6.32;4.75;;;;;;;;;;5016260;28;20271;-49
2023/06/12 05:22:25;;;;;;;7.03;5.03;;;;;;;;;;5010590;28;20223;-49
2023/06/12 05:24:51;;;;;;;7.97;5.00;;;;;;;;;;5015995;28;20189;-49
2023/06/12 05:27:17;;;;;;;7.60;4.80;;;;;;;;;;5016972;28;20490;-49
2023/06/12 05:29:43;;;;;;;6.57;4.82;;;;;;;;;;5016886;28;20184;-49
2023/06/12 05:32:09;;;;;;;5.55;4.57;;;;;;;;;;5017514;28;20184;-49
2023/06/12 05:34:35;;;;;;;6.30;4.90;;;;;;;;;;5015260;28;20191;-49
2023/06/12 05:37:02;;;;;;;6.18;4.68;;;;;;;;;;5007589;28;20245;-49
2023/06/12 05:39:28;;;;;;;5.82;4.97;;;;;;;;;;5008836;28;20595;-49
2023/06/12 05:41:53;;;;;;;6.75;5.30;;;;;;;;;;5015885;28;20192;-50
2023/06/12 05:44:19;;;;;;;7.72;5.18;;;;;;;;;;5013341;28;20407;-49
2023/06/12 05:46:48;;;;;;;7.03;4.90;;;;;;;;;;5007828;28;20220;-49
2023/06/12 05:49:14;;;;;;;6.35;5.22;;;;;;;;;;5015065;28;20606;-49
2023/06/12 05:51:39;;;;;;;5.20;4.68;;;;;;;;;;5016233;28;20180;-49
2023/06/12 05:54:05;;;;;;;8.00;4.68;;;;;;;;;;5014706;28;20180;-49
2023/06/12 05:56:31;;;;;;;6.15;4.30;;;;;;;;;;5016311;28;20270;-49
2023/06/12 05:58:57;;;;;;;4.60;4.15;;;;;;;;;;5011852;28;20196;-49
2023/06/12 06:01:25;;;;;;;5.85;4.43;;;;;;;;;;5014479;28;20183;-49
2023/06/12 06:03:52;;;;;;;6.10;4.20;;;;;;;;;;5009477;28;20508;-49
2023/06/12 06:06:18;;;;;;;6.20;4.20;;;;;;;;;;5019708;28;20195;-49
2023/06/12 06:08:44;;;;;;;5.28;4.20;;;;;;;;;;5018550;28;20476;-49
2023/06/12 06:11:10;;;;;;;5.30;4.45;;;;;;;;;;5016121;28;20187;-48
2023/06/12 06:13:36;;;;;;;5.47;4.68;;;;;;;;;;5009264;28;20564;-49
2023/06/12 06:16:02;;;;;;;7.00;4.65;;;;;;;;;;5014866;28;20195;-49
2023/06/12 06:18:29;;;;;;;5.30;4.00;;;;;;;;;;5009350;28;20177;-49
2023/06/12 06:20:55;;;;;;;5.80;4.10;;;;;;;;;;5011235;28;20204;-48
2023/06/12 06:23:25;;;;;;;4.57;4.05;;;;;;;;;;5011056;28;20196;-48
2023/06/12 06:25:51;;;;;;;5.00;3.90;;;;;;;;;;5013862;28;20532;-48
2023/06/12 06:28:17;;;;;;;4.85;4.10;;;;;;;;;;5013615;28;20184;-48
2023/06/12 06:30:43;;;;;;;6.07;4.18;;;;;;;;;;5013652;28;20271;-48
2023/06/12 06:33:09;;;;;;;5.57;3.70;;;;;;;;;;5013631;28;20227;-48
2023/06/12 06:35:34;;;;;;;5.20;4.10;;;;;;;;;;5014512;28;20516;-49
2023/06/12 06:38:00;;;;;;;8.63;4.20;;;;;;;;;;5013136;28;20248;-49
2023/06/12 06:40:26;;;;;;;5.13;3.97;;;;;;;;;;5017943;28;20176;-49
2023/06/12 06:42:52;;;;;;;6.63;3.80;;;;;;;;;;5016000;28;20895;-48
2023/06/12 06:45:19;;;;;;;5.72;3.88;;;;;;;;;;5009495;28;20208;-48
2023/06/12 06:47:44;;;;;;;4.38;3.65;;;;;;;;;;5011769;28;20235;-48
2023/06/12 06:50:11;;;;;;;5.15;3.78;;;;;;;;;;5004168;28;20543;-49
2023/06/12 06:52:36;;;;;;;4.18;3.78;;;;;;;;;;5026968;28;20566;-49
2023/06/12 06:55:02;;;;;;;5.32;4.00;;;;;;;;;;5021151;28;20321;-49
2023/06/12 06:57:28;;;;;;;5.07;3.80;;;;;;;;;;5020586;28;20188;-49
2023/06/12 06:59:55;;;;;;;4.47;4.05;;;;;;;;;;5013668;28;20552;-48
2023/06/12 07:02:21;;;;;;;3.75;3.40;;;;;;;;;;5005418;28;20264;-48
2023/06/12 07:04:48;;;;;;;4.32;3.78;;;;;;;;;;5006700;28;20181;-48
2023/06/12 07:07:14;;;;;;;4.22;3.40;;;;;;;;;;5009954;28;20279;-49
2023/06/12 07:09:40;;;;;;;4.97;3.33;;;;;;;;;;5014532;28;20771;-48
2023/06/12 07:12:06;;;;;;;7.40;3.95;;;;;;;;;;5011526;28;20183;-48
2023/06/12 07:14:32;;;;;;;4.55;3.83;;;;;;;;;;5012921;28;20212;-48
2023/06/12 07:16:58;;;;;;;5.05;3.97;;;;;;;;;;5014457;28;20453;-49
2023/06/12 07:19:24;;;;;;;5.57;3.75;;;;;;;;;;5014601;28;20449;-48
2023/06/12 07:21:50;;;;;;;5.07;3.42;;;;;;;;;;5030061;28;20367;-48
2023/06/12 07:24:20;;;;;;;5.78;3.50;;;;;;;;;;5013878;28;20457;-48
2023/06/12 07:26:46;;;;;;;3.72;3.22;;;;;;;;;;5013077;28;20204;-48
2023/06/12 07:29:13;;;;;;;4.78;3.88;;;;;;;;;;5010758;28;20207;-48
2023/06/12 07:31:39;;;;;;;5.45;3.75;;;;;;;;;;5003954;28;20181;-48
2023/06/12 07:34:05;;;;;;;4.07;3.22;;;;;;;;;;5013332;28;20188;-48
2023/06/12 07:36:35;;;;;;;6.07;3.38;;;;;;;;;;5013875;28;20196;-48
2023/06/12 07:39:02;;;;;;;4.20;3.13;;;;;;;;;;5013630;28;20517;-48
2023/06/12 07:41:28;;;;;;;4.25;3.15;;;;;;;;;;5012885;28;20472;-48
2023/06/12 07:43:54;;;;;;;4.30;3.10;;;;;;;;;;5013123;28;20203;-48
2023/06/12 07:46:20;;;;;;;4.32;3.33;;;;;;;;;;5013985;28;20208;-48
2023/06/12 07:48:46;;;;;;;5.82;2.83;;;;;;;;;;5009774;28;20446;-48
2023/06/12 07:51:12;;;;;;;4.10;3.40;;;;;;;;;;5010576;28;20176;-48
2023/06/12 07:53:38;;;;;;;5.93;2.90;;;;;;;;;;5010334;28;20195;-48
2023/06/12 07:56:04;;;;;;;3.75;3.30;;;;;;;;;;5014004;28;20228;-49
2023/06/12 07:58:31;;;;;;;5.10;3.28;;;;;;;;;;5014130;28;20200;-48
2023/06/12 08:00:57;;;;;;;4.38;3.20;;;;;;;;;;5008315;28;20428;-48
2023/06/12 08:03:26;;;;;;;3.40;3.10;;;;;;;;;;5012983;28;20234;-48
2023/06/12 08:05:52;;;;;;;3.90;3.10;;;;;;;;;;5012370;28;20503;-49
2023/06/12 08:08:18;;;;;;;5.00;3.30;;;;;;;;;;5013763;28;20525;-48
2023/06/12 08:10:44;;;;;;;3.45;2.90;;;;;;;;;;5013987;28;20204;-48
2023/06/12 08:13:10;;;;;;;3.22;2.75;;;;;;;;;;5013497;28;20189;-48
2023/06/12 08:15:36;;;;;;;3.42;3.00;;;;;;;;;;5008283;28;20538;-48
2023/06/12 08:18:02;;;;;;;3.95;2.78;;;;;;;;;;5009252;28;20187;-48
2023/06/12 08:20:30;;;;;;;3.55;2.78;;;;;;;;;;5010053;28;20299;-48
2023/06/12 08:22:57;;;;;;;4.82;2.95;;;;;;;;;;5007596;28;20173;-48
2023/06/12 08:25:23;;;;;;;4.57;2.90;;;;;;;;;;5011851;28;20599;-48
2023/06/12 08:27:49;;;;;;;4.03;3.10;;;;;;;;;;5013533;28;20192;-48
2023/06/12 08:30:15;;;;;;;4.60;3.05;;;;;;;;;;5017754;28;20176;-48
2023/06/12 08:32:41;;;;;;;3.92;3.25;;;;;;;;;;5033296;28;20181;-48
2023/06/12 08:35:07;;;;;;;4.88;3.03;;;;;;;;;;5016932;28;20176;-48
2023/06/12 08:37:33;;;;;;;3.35;2.78;;;;;;;;;;5016017;28;20319;-48
2023/06/12 08:40:00;;;;;;;5.07;3.08;;;;;;;;;;5017049;28;20242;-48
2023/06/12 08:42:26;;;;;;;6.28;3.17;;;;;;;;;;5015352;28;20274;-48
2023/06/12 08:44:56;;;;;;;5.60;4.13;;;;;;;;;;5010307;28;20388;-48
2023/06/12 08:47:22;;;;;;;4.07;2.95;;;;;;;;;;5009611;28;20447;-48
2023/06/12 08:49:50;;;;;;;4.25;3.45;;;;;;;;;;5016662;28;20560;-49
2023/06/12 08:52:17;;;;;;;3.65;2.97;;;;;;;;;;5016121;28;20176;-48
2023/06/12 08:54:43;;;;;;;5.15;3.13;;;;;;;;;;5009387;28;20184;-49
2023/06/12 08:57:10;;;;;;;3.40;3.05;;;;;;;;;;5014670;28;20195;-48
2023/06/12 08:59:36;;;;;;;3.47;2.88;;;;;;;;;;5011538;28;20189;-48
2023/06/12 09:02:03;;;;;;;5.22;3.45;;;;;;;;;;5013389;28;20189;-48
2023/06/12 09:04:41;;;;;;;3.80;3.20;;;;;;;;;;5011904;28;20267;-48
2023/06/12 09:07:07;;;;;;;3.95;2.80;;;;;;;;;;5016032;28;20204;-48
2023/06/12 09:09:37;;;;;;;3.95;3.08;;;;;;;;;;5017072;28;20214;-48
2023/06/12 09:12:06;;;;;;;4.22;3.28;;;;;;;;;;5011695;28;20695;-49
2023/06/12 09:14:35;;;;;;;3.42;2.75;;;;;;;;;;5011228;28;20639;-48
2023/06/12 09:17:02;;;;;;;3.03;2.70;;;;;;;;;;5018495;28;20242;-48
2023/06/12 09:19:40;;;;;;;3.55;2.88;;;;;;;;;;5015661;28;20184;-48
2023/06/12 09:22:06;;;;;;;4.07;3.20;;;;;;;;;;5015217;28;20584;-48
2023/06/12 09:24:32;;;;;;;4.88;3.40;;;;;;;;;;5015567;28;20619;-48
2023/06/12 09:27:00;;;;;;;3.90;2.97;;;;;;;;;;5017196;28;20212;-48
2023/06/12 09:29:26;;;;;;;7.00;3.67;;;;;;;;;;5015968;28;20180;-48
2023/06/12 09:31:52;;;;;;;3.58;2.80;;;;;;;;;;5016104;28;20196;-48
2023/06/12 09:34:18;;;;;;;3.90;2.85;;;;;;;;;;5016800;28;20522;-48
2023/06/12 09:36:44;;;;;;;3.30;2.80;;;;;;;;;;5013814;28;20239;-48
2023/06/12 09:39:15;;;;;;;4.55;3.25;;;;;;;;;;5010948;28;20243;-48
2023/06/12 09:41:48;;;;;;;4.00;2.58;;;;;;;;;;5011739;28;20224;-48
2023/06/12 09:44:19;;;;;;;2.78;2.35;;;;;;;;;;5009756;28;20194;-48
2023/06/12 09:46:45;;;;;;;3.55;2.83;;;;;;;;;;5016915;28;20596;-47
2023/06/12 09:49:13;;;;;;;2.90;2.60;;;;;;;;;;5009040;28;20216;-47
2023/06/12 09:51:40;;;;;;;4.10;3.28;;;;;;;;;;5016503;28;20544;-48
2023/06/12 09:54:07;;;;;;;4.07;3.30;;;;;;;;;;5014639;28;20263;-48
2023/06/12 09:56:34;;;;;;;2.95;2.40;;;;;;;;;;5012631;28;20253;-48
2023/06/12 09:59:02;;;;;;;3.65;2.80;;;;;;;;;;5016418;28;20557;-48
2023/06/12 10:01:28;;;;;;;4.10;2.80;;;;;;;;;;5010854;28;20176;-49
2023/06/12 10:03:56;;;;;;;3.38;3.00;;;;;;;;;;5014376;28;20222;-49
2023/06/12 10:06:23;;;;;;;3.25;2.85;;;;;;;;;;5014308;28;20200;-48
2023/06/12 10:08:53;;;;;;;3.45;2.83;;;;;;;;;;5016117;28;20196;-48
2023/06/12 10:11:19;;;;;;;3.38;2.72;;;;;;;;;;5015378;28;20169;-48
2023/06/12 10:13:45;;;;;;;3.30;3.00;;;;;;;;;;5014345;28;20181;-48
2023/06/12 10:16:11;;;;;;;4.35;2.47;;;;;;;;;;5007149;28;20224;-48
2023/06/12 10:18:38;;;;;;;4.72;3.00;;;;;;;;;;5008217;28;20199;-48
2023/06/12 10:21:04;;;;;;;5.53;3.00;;;;;;;;;;5013417;28;20200;-48
2023/06/12 10:23:31;;;;;;;3.85;3.20;;;;;;;;;;5020806;28;20177;-48
2023/06/12 10:25:58;;;;;;;5.60;2.97;;;;;;;;;;5012608;28;20208;-48
2023/06/12 10:28:24;;;;;;;4.30;3.00;;;;;;;;;;5013166;28;20183;-48
2023/06/12 10:31:10;;;;;;;6.55;2.72;;;;;;;;;;5011646;28;20974;-48
2023/06/12 10:33:36;;;;;;;3.53;3.00;;;;;;;;;;5011037;28;20194;-48
2023/06/12 10:36:09;;;;;;;3.13;2.75;;;;;;;;;;5008552;28;20193;-48
2023/06/12 10:38:43;;;;;;;4.25;3.17;;;;;;;;;;5012584;28;20682;-48
2023/06/12 10:41:09;;;;;;;3.80;3.30;;;;;;;;;;5015456;28;20180;-48
2023/06/12 10:43:35;;;;;;;3.63;3.10;;;;;;;;;;5015014;28;20203;-48
2023/06/12 10:46:01;;;;;;;3.78;2.90;;;;;;;;;;5012927;28;20215;-48
2023/06/12 10:48:27;;;;;;;5.10;3.13;;;;;;;;;;5012491;28;20231;-48
2023/06/12 10:50:54;;;;;;;4.20;3.50;;;;;;;;;;5014416;28;20180;-48
2023/06/12 10:53:24;;;;;;;4.32;3.28;;;;;;;;;;5015144;28;20443;-48
2023/06/12 10:55:54;;;;;;;4.38;3.38;;;;;;;;;;5012840;28;20567;-48
2023/06/12 10:58:21;;;;;;;6.10;3.65;;;;;;;;;;5010264;28;20378;-48
2023/06/12 11:00:51;;;;;;;4.38;3.22;;;;;;;;;;5005397;28;20516;-48
2023/06/12 11:03:21;;;;;;;4.43;3.03;;;;;;;;;;5010303;28;20200;-48
2023/06/12 11:05:48;;;;;;;4.60;3.45;;;;;;;;;;5005425;28;20553;-48
2023/06/12 11:08:15;;;;;;;4.85;3.53;;;;;;;;;;5005912;28;20197;-48
2023/06/12 11:10:42;;;;;;;4.38;3.30;;;;;;;;;;5006586;28;20738;-48
2023/06/12 11:13:08;;;;;;;4.05;3.28;;;;;;;;;;5009280;28;20201;-48
2023/06/12 11:15:42;;;;;;;6.35;3.30;;;;;;;;;;5007357;28;20231;-48
2023/06/12 11:18:08;;;;;;;4.80;3.38;;;;;;;;;;5010721;28;20263;-48
2023/06/12 11:20:34;;;;;;;4.15;3.35;;;;;;;;;;5013956;28;20275;-48
2023/06/12 11:23:01;;;;;;;4.38;3.33;;;;;;;;;;5013455;28;20655;-48
2023/06/12 11:25:27;;;;;;;3.85;3.45;;;;;;;;;;5013672;28;20243;-48
2023/06/12 11:27:54;;;;;;;5.10;3.10;;;;;;;;;;5018612;28;20200;-48
2023/06/12 11:30:20;;;;;;;4.82;3.40;;;;;;;;;;5013896;28;20624;-48
2023/06/12 11:32:46;;;;;;;4.00;3.30;;;;;;;;;;5014218;28;20267;-48
2023/06/12 11:35:12;;;;;;;4.40;3.40;;;;;;;;;;5013440;28;20180;-48
2023/06/12 11:37:39;;;;;;;3.40;3.10;;;;;;;;;;5013461;28;20191;-48
2023/06/12 11:40:10;;;;;;;4.25;3.50;;;;;;;;;;5007464;28;20192;-48
2023/06/12 11:42:37;;;;;;;6.32;3.22;;;;;;;;;;5011629;28;20496;-48
2023/06/12 11:45:03;;;;;;;4.53;3.42;;;;;;;;;;5005171;28;20185;-48
2023/06/12 11:47:29;;;;;;;3.40;3.10;;;;;;;;;;5011611;28;20581;-48
2023/06/12 11:49:55;;;;;;;4.20;3.40;;;;;;;;;;5013898;28;20184;-49
2023/06/12 11:52:21;;;;;;;3.60;3.30;;;;;;;;;;5014547;28;20176;-49
2023/06/12 11:54:57;;;;;;;8.02;4.35;;;;;;;;;;5002173;28;20230;-49
2023/06/12 11:57:26;;;;;;;4.32;3.40;;;;;;;;;;5013924;28;20187;-46
2023/06/12 11:59:56;;;;;;;5.53;3.20;;;;;;;;;;5010869;28;20232;-48
2023/06/12 12:02:26;;;;;;;5.35;3.35;;;;;;;;;;5012363;28;20184;-48
2023/06/12 12:04:53;;;;;;;4.65;3.13;;;;;;;;;;5013297;28;20195;-48
2023/06/12 12:07:20;;;;;;;4.32;3.53;;;;;;;;;;5009578;28;20315;-48
2023/06/12 12:09:46;;;;;;;4.57;3.97;;;;;;;;;;5011279;28;20181;-48
2023/06/12 12:12:12;;;;;;;4.60;3.47;;;;;;;;;;5012936;28;20177;-48
2023/06/12 12:14:48;;;;;;;7.80;3.70;;;;;;;;;;5013569;28;20191;-48
2023/06/12 12:17:16;;;;;;;3.70;3.33;;;;;;;;;;5012433;28;20179;-48
2023/06/12 12:19:42;;;;;;;5.20;3.42;;;;;;;;;;5010059;28;20185;-49
2023/06/12 12:22:09;;;;;;;6.25;3.22;;;;;;;;;;5013048;28;20448;-48
2023/06/12 12:24:36;;;;;;;4.47;3.38;;;;;;;;;;5012520;28;20187;-48
2023/06/12 12:27:03;;;;;;;4.13;3.60;;;;;;;;;;5013297;28;20200;-48
2023/06/12 12:29:32;;;;;;;4.88;3.58;;;;;;;;;;5007280;28;20456;-48
2023/06/12 12:31:58;;;;;;;5.40;3.80;;;;;;;;;;5011865;28;20183;-48
2023/06/12 12:34:26;;;;;;;4.10;3.70;;;;;;;;;;5011240;28;20448;-48
2023/06/12 12:36:52;;;;;;;4.13;3.28;;;;;;;;;;5015035;28;20227;-48
2023/06/12 12:39:18;;;;;;;4.35;3.60;;;;;;;;;;5013660;28;20535;-48
2023/06/12 12:41:44;;;;;;;3.33;2.97;;;;;;;;;;5013186;28;20224;-48
2023/06/12 12:44:10;;;;;;;3.55;3.25;;;;;;;;;;5010002;28;20189;-48
2023/06/12 12:46:37;;;;;;;3.65;3.30;;;;;;;;;;5013050;28;20215;-48
2023/06/12 12:49:03;;;;;;;3.63;2.97;;;;;;;;;;5011745;28;20172;-48
2023/06/12 12:51:29;;;;;;;5.00;3.30;;;;;;;;;;5011104;28;20176;-48
2023/06/12 12:53:56;;;;;;;4.53;3.50;;;;;;;;;;5012949;28;20190;-48
2023/06/12 12:56:22;;;;;;;6.07;3.50;;;;;;;;;;5005891;28;20248;-48
2023/06/12 12:58:49;;;;;;;6.18;3.50;;;;;;;;;;5013130;28;20184;-48
2023/06/12 13:01:15;;;;;;;4.07;3.17;;;;;;;;;;5011797;28;20284;-48
2023/06/12 13:03:41;;;;;;;6.55;3.38;;;;;;;;;;5010733;28;20271;-48
2023/06/12 13:06:11;;;;;;;3.92;3.50;;;;;;;;;;5007852;28;20232;-48
2023/06/12 13:08:37;;;;;;;5.05;3.40;;;;;;;;;;5009448;28;20181;-48
2023/06/12 13:11:03;;;;;;;4.00;3.00;;;;;;;;;;5012531;28;20180;-48
2023/06/12 13:13:29;;;;;;;4.25;3.25;;;;;;;;;;5016497;28;20423;-49
2023/06/12 13:15:55;;;;;;;4.95;3.50;;;;;;;;;;5017151;28;20259;-48
2023/06/12 13:18:20;;;;;;;3.80;2.90;;;;;;;;;;5018145;28;20280;-48
2023/06/12 13:20:46;;;;;;;3.22;2.92;;;;;;;;;;5017058;28;20193;-48
2023/06/12 13:23:14;;;;;;;5.30;3.15;;;;;;;;;;5012055;28;20180;-48
2023/06/12 13:25:40;;;;;;;4.75;3.33;;;;;;;;;;5016216;28;20215;-48
2023/06/12 13:28:06;;;;;;;4.38;2.67;;;;;;;;;;5016494;28;20173;-48
2023/06/12 13:30:32;;;;;;;7.97;3.15;;;;;;;;;;5013183;28;20199;-48
2023/06/12 13:32:57;;;;;;;12.27;4.00;;;;;;;;;;5018318;28;20180;-48
2023/06/12 13:35:24;;;;;;;10.07;3.80;;;;;;;;;;5015810;28;20193;-48
2023/06/12 13:37:51;;;;;;;8.55;3.72;;;;;;;;;;5010782;28;20549;-48
2023/06/12 13:40:17;;;;;;;6.05;3.05;;;;;;;;;;5010225;28;20176;-48
2023/06/12 13:42:44;;;;;;;5.75;3.20;;;;;;;;;;5012761;28;20568;-48
2023/06/12 13:45:10;;;;;;;6.97;3.60;;;;;;;;;;5014670;28;20230;-48
2023/06/12 13:47:36;;;;;;;10.07;3.70;;;;;;;;;;5020676;28;20216;-48
2023/06/12 13:50:03;;;;;;;7.25;3.50;;;;;;;;;;5015714;28;20446;-48
2023/06/12 13:52:30;;;;;;;8.95;3.72;;;;;;;;;;5012109;28;20210;-48
2023/06/12 13:54:56;;;;;;;6.82;3.35;;;;;;;;;;5009750;28;20307;-48
2023/06/12 13:57:22;;;;;;;11.88;3.50;;;;;;;;;;5031627;28;20279;-48
2023/06/12 13:59:48;;;;;;;3.95;3.20;;;;;;;;;;5011814;28;20203;-48
2023/06/12 14:02:14;;;;;;;5.68;3.20;;;;;;;;;;5006909;28;20189;-48
2023/06/12 14:04:40;;;;;;;5.25;3.13;;;;;;;;;;5008011;28;20263;-48
2023/06/12 14:07:06;;;;;;;5.03;3.38;;;;;;;;;;5009236;28;20251;-48
2023/06/12 14:09:32;;;;;;;10.18;3.72;;;;;;;;;;5030816;28;20185;-48
2023/06/12 14:11:58;;;;;;;3.03;2.60;;;;;;;;;;5015210;28;20195;-48
2023/06/12 14:14:24;;;;;;;4.22;3.08;;;;;;;;;;5014415;28;20449;-48
2023/06/12 14:16:51;;;;;;;5.50;3.20;;;;;;;;;;5010032;28;20227;-48
2023/06/12 14:19:17;;;;;;;4.22;3.00;;;;;;;;;;5014385;28;20176;-48
2023/06/12 14:21:42;;;;;;;6.82;2.90;;;;;;;;;;5014699;28;20222;-48
2023/06/12 14:24:08;;;;;;;4.65;3.10;;;;;;;;;;5011696;28;20469;-48
2023/06/12 14:26:34;;;;;;;4.97;3.05;;;;;;;;;;5009568;28;20221;-48
2023/06/12 14:29:00;;;;;;;3.15;2.75;;;;;;;;;;5013411;28;20311;-48
2023/06/12 14:31:26;;;;;;;4.10;3.42;;;;;;;;;;5012969;28;20180;-48
2023/06/12 14:33:52;;;;;;;3.83;3.35;;;;;;;;;;5014377;28;20184;-48
2023/06/12 14:36:18;;;;;;;4.50;2.90;;;;;;;;;;5011792;28;20185;-48
2023/06/12 14:38:44;;;;;;;4.72;3.22;;;;;;;;;;5007483;28;20530;-48
2023/06/12 14:41:10;;;;;;;4.95;2.92;;;;;;;;;;5012881;28;20448;-48